sensor_id;sensor_type;location;lat;lon;timestamp;pressure;altitude;pressure_sealevel;temperature;humidity
13800;BME280;6971;50.028;9.258;2023-10-09T00:03:47;99991.34;;;11.06;100.00
13800;BME280;6971;50.028;9.258;2023-10-09T00:08:53;99984.44;;;11.03;100.00
13800;BME280;6971;50.028;9.258;2023-10-09T00:13:55;99986.06;;;11.06;100.00
13800;BME280;6971;50.028;9.258;2023-10-09T00:19:00;99977.63;;;11.17;100.00
13800;BME280;6971;50.028;9.258;2023-10-09T00:24:14;99976.38;;;11.06;100.00
13800;BME280;6971;50.028;9.258;2023-10-09T00:29:21;99968.88;;;11.16;100.00
13800;BME280;6971;50.028;9.258;2023-10-09T00:34:22;99954.66;;;11.01;100.00
13800;BME280;6971;50.028;9.258;2023-10-09T00:39:26;99955.28;;;11.06;100.00
13800;BME280;6971;50.028;9.258;2023-10-09T00:44:52;99945.50;;;11.08;100.00
13800;BME280;6971;50.028;9.258;2023-10-09T00:50:12;99937.19;;;10.99;100.00
13800;BME280;6971;50.028;9.258;2023-10-09T00:55:17;99934.56;;;10.99;100.00
13800;BME280;6971;50.028;9.258;2023-10-09T01:00:21;99934.00;;;10.92;100.00
13800;BME280;6971;50.028;9.258;2023-10-09T01:05:49;99919.81;;;10.94;100.00
13800;BME280;6971;50.028;9.258;2023-10-09T01:10:57;99918.16;;;10.92;100.00
13800;BME280;6971;50.028;9.258;2023-10-09T01:16:09;99908.75;;;10.86;100.00
13800;BME280;6971;50.028;9.258;2023-10-09T01:21:16;99902.94;;;10.79;100.00
13800;BME280;6971;50.028;9.258;2023-10-09T01:26:17;99893.59;;;10.72;100.00
13800;BME280;6971;50.028;9.258;2023-10-09T01:31:18;99897.72;;;10.58;100.00
13800;BME280;6971;50.028;9.258;2023-10-09T01:36:20;99890.63;;;10.61;100.00
13800;BME280;6971;50.028;9.258;2023-10-09T01:41:31;99884.63;;;10.57;100.00
13800;BME280;6971;50.028;9.258;2023-10-09T01:46:34;99881.94;;;10.38;100.00
13800;BME280;6971;50.028;9.258;2023-10-09T01:51:34;99884.75;;;10.35;100.00
13800;BME280;6971;50.028;9.258;2023-10-09T01:56:36;99883.75;;;10.37;100.00
13800;BME280;6971;50.028;9.258;2023-10-09T02:01:39;99888.13;;;10.17;100.00
13800;BME280;6971;50.028;9.258;2023-10-09T02:06:47;99884.59;;;10.18;100.00
13800;BME280;6971;50.028;9.258;2023-10-09T02:11:52;99887.69;;;10.08;100.00
13800;BME280;6971;50.028;9.258;2023-10-09T02:16:52;99888.88;;;10.00;100.00
13800;BME280;6971;50.028;9.258;2023-10-09T02:22:11;99896.97;;;9.96;100.00
13800;BME280;6971;50.028;9.258;2023-10-09T02:27:12;99886.59;;;9.92;100.00
13800;BME280;6971;50.028;9.258;2023-10-09T02:32:15;99892.97;;;9.87;100.00
13800;BME280;6971;50.028;9.258;2023-10-09T02:37:26;99885.38;;;9.81;100.00
13800;BME280;6971;50.028;9.258;2023-10-09T02:42:28;99882.97;;;9.74;100.00
13800;BME280;6971;50.028;9.258;2023-10-09T02:47:28;99873.91;;;9.82;100.00
13800;BME280;6971;50.028;9.258;2023-10-09T02:52:37;99868.38;;;9.67;100.00
13800;BME280;6971;50.028;9.258;2023-10-09T02:57:40;99872.78;;;9.66;100.00
13800;BME280;6971;50.028;9.258;2023-10-09T03:02:42;99864.69;;;9.71;100.00
13800;BME280;6971;50.028;9.258;2023-10-09T03:07:43;99860.75;;;9.61;100.00
13800;BME280;6971;50.028;9.258;2023-10-09T03:12:44;99868.38;;;9.67;100.00
13800;BME280;6971;50.028;9.258;2023-10-09T03:17:44;99864.38;;;9.58;100.00
13800;BME280;6971;50.028;9.258;2023-10-09T03:22:45;99861.69;;;9.60;100.00
13800;BME280;6971;50.028;9.258;2023-10-09T03:27:47;99854.38;;;9.46;100.00
13800;BME280;6971;50.028;9.258;2023-10-09T03:32:51;99842.53;;;9.35;100.00
13800;BME280;6971;50.028;9.258;2023-10-09T03:37:55;99841.94;;;9.29;100.00
13800;BME280;6971;50.028;9.258;2023-10-09T03:43:17;99840.25;;;9.27;100.00
13800;BME280;6971;50.028;9.258;2023-10-09T03:48:18;99846.59;;;9.22;100.00
13800;BME280;6971;50.028;9.258;2023-10-09T03:53:32;99833.50;;;9.20;100.00
13800;BME280;6971;50.028;9.258;2023-10-09T03:58:32;99841.47;;;9.19;100.00
13800;BME280;6971;50.028;9.258;2023-10-09T04:03:34;99830.44;;;9.31;100.00
13800;BME280;6971;50.028;9.258;2023-10-09T04:08:37;99833.00;;;9.33;100.00
13800;BME280;6971;50.028;9.258;2023-10-09T04:13:40;99837.22;;;9.37;100.00
13800;BME280;6971;50.028;9.258;2023-10-09T04:18:40;99838.19;;;9.34;100.00
13800;BME280;6971;50.028;9.258;2023-10-09T04:23:45;99834.31;;;9.43;100.00
13800;BME280;6971;50.028;9.258;2023-10-09T04:29:20;99839.09;;;9.33;100.00
13800;BME280;6971;50.028;9.258;2023-10-09T04:34:27;99846.59;;;9.22;100.00
13800;BME280;6971;50.028;9.258;2023-10-09T04:39:28;99840.34;;;9.24;100.00
13800;BME280;6971;50.028;9.258;2023-10-09T04:44:31;99835.63;;;9.33;100.00
13800;BME280;6971;50.028;9.258;2023-10-09T04:49:38;99842.31;;;9.19;100.00
13800;BME280;6971;50.028;9.258;2023-10-09T04:54:59;99828.97;;;9.24;100.00
13800;BME280;6971;50.028;9.258;2023-10-09T05:00:13;99825.28;;;9.28;100.00
13800;BME280;6971;50.028;9.258;2023-10-09T05:05:28;99832.59;;;9.21;100.00
13800;BME280;6971;50.028;9.258;2023-10-09T05:10:37;99839.16;;;9.11;100.00
13800;BME280;6971;50.028;9.258;2023-10-09T05:15:54;99839.16;;;9.11;100.00
13800;BME280;6971;50.028;9.258;2023-10-09T05:20:57;99837.09;;;8.97;100.00
13800;BME280;6971;50.028;9.258;2023-10-09T05:26:06;99828.69;;;9.09;100.00
13800;BME280;6971;50.028;9.258;2023-10-09T05:31:26;99832.69;;;8.97;100.00
13800;BME280;6971;50.028;9.258;2023-10-09T05:36:55;99827.84;;;9.09;100.00
13800;BME280;6971;50.028;9.258;2023-10-09T05:42:11;99839.59;;;9.00;100.00
13800;BME280;6971;50.028;9.258;2023-10-09T05:47:18;99839.34;;;9.06;100.00
13800;BME280;6971;50.028;9.258;2023-10-09T05:52:31;99840.00;;;9.11;100.00
13800;BME280;6971;50.028;9.258;2023-10-09T05:57:40;99831.59;;;9.24;100.00
13800;BME280;6971;50.028;9.258;2023-10-09T06:02:58;99827.97;;;9.26;100.00
13800;BME280;6971;50.028;9.258;2023-10-09T06:08:18;99831.34;;;9.30;100.00
13800;BME280;6971;50.028;9.258;2023-10-09T06:13:25;99843.13;;;9.42;100.00
13800;BME280;6971;50.028;9.258;2023-10-09T06:18:47;99835.63;;;9.53;100.00
13800;BME280;6971;50.028;9.258;2023-10-09T06:24:08;99838.53;;;9.68;100.00
13800;BME280;6971;50.028;9.258;2023-10-09T06:29:14;99833.97;;;9.72;100.00
13800;BME280;6971;50.028;9.258;2023-10-09T06:34:15;99842.84;;;9.90;100.00
13800;BME280;6971;50.028;9.258;2023-10-09T06:39:16;99855.53;;;10.01;100.00
13800;BME280;6971;50.028;9.258;2023-10-09T06:44:35;99855.69;;;10.17;100.00
13800;BME280;6971;50.028;9.258;2023-10-09T06:49:53;99872.91;;;10.24;100.00
13800;BME280;6971;50.028;9.258;2023-10-09T06:55:11;99861.72;;;10.38;100.00
13800;BME280;6971;50.028;9.258;2023-10-09T07:00:19;99852.28;;;10.53;100.00
13800;BME280;6971;50.028;9.258;2023-10-09T07:05:38;99867.25;;;10.53;100.00
13800;BME280;6971;50.028;9.258;2023-10-09T07:11:00;99862.44;;;10.80;100.00
13800;BME280;6971;50.028;9.258;2023-10-09T07:16:22;99876.88;;;10.91;100.00
13800;BME280;6971;50.028;9.258;2023-10-09T07:21:28;99857.22;;;10.98;100.00
13800;BME280;6971;50.028;9.258;2023-10-09T07:26:30;99882.28;;;11.25;100.00
13800;BME280;6971;50.028;9.258;2023-10-09T07:31:49;99894.59;;;11.43;100.00
13800;BME280;6971;50.028;9.258;2023-10-09T07:36:57;99885.47;;;11.67;100.00
13800;BME280;6971;50.028;9.258;2023-10-09T07:41:57;99890.84;;;11.83;100.00
13800;BME280;6971;50.028;9.258;2023-10-09T07:47:15;99881.66;;;12.08;100.00
13800;BME280;6971;50.028;9.258;2023-10-09T07:52:20;99892.00;;;12.29;100.00
13800;BME280;6971;50.028;9.258;2023-10-09T07:57:23;99914.34;;;12.39;100.00
13800;BME280;6971;50.028;9.258;2023-10-09T08:02:29;99910.81;;;12.56;100.00
13800;BME280;6971;50.028;9.258;2023-10-09T08:07:33;99904.34;;;12.78;100.00
13800;BME280;6971;50.028;9.258;2023-10-09T08:12:39;99909.19;;;12.86;100.00
13800;BME280;6971;50.028;9.258;2023-10-09T08:17:57;99912.34;;;12.92;100.00
13800;BME280;6971;50.028;9.258;2023-10-09T08:23:09;99906.59;;;13.16;100.00
13800;BME280;6971;50.028;9.258;2023-10-09T08:28:22;99914.00;;;13.26;100.00
13800;BME280;6971;50.028;9.258;2023-10-09T08:33:22;99919.25;;;13.42;100.00
13800;BME280;6971;50.028;9.258;2023-10-09T08:38:25;99929.75;;;13.60;100.00
13800;BME280;6971;50.028;9.258;2023-10-09T08:43:29;99928.38;;;13.83;100.00
13800;BME280;6971;50.028;9.258;2023-10-09T08:48:34;99941.94;;;13.93;100.00
13800;BME280;6971;50.028;9.258;2023-10-09T08:53:39;99934.31;;;14.03;100.00
13800;BME280;6971;50.028;9.258;2023-10-09T08:58:43;99929.00;;;14.17;100.00
13800;BME280;6971;50.028;9.258;2023-10-09T09:03:43;99921.22;;;14.14;100.00
13800;BME280;6971;50.028;9.258;2023-10-09T09:08:45;99925.78;;;14.27;100.00
13800;BME280;6971;50.028;9.258;2023-10-09T09:13:59;99939.97;;;14.55;100.00
13800;BME280;6971;50.028;9.258;2023-10-09T09:19:07;99921.78;;;14.63;100.00
13800;BME280;6971;50.028;9.258;2023-10-09T09:24:11;99920.34;;;14.86;100.00
13800;BME280;6971;50.028;9.258;2023-10-09T09:34:52;99924.94;;;16.69;100.00
13800;BME280;6971;50.028;9.258;2023-10-09T09:40:02;99920.59;;;17.30;100.00
13800;BME280;6971;50.028;9.258;2023-10-09T09:45:16;99919.13;;;16.89;100.00
13800;BME280;6971;50.028;9.258;2023-10-09T09:50:17;99931.34;;;16.67;100.00
13800;BME280;6971;50.028;9.258;2023-10-09T09:55:34;99927.19;;;16.63;100.00
13800;BME280;6971;50.028;9.258;2023-10-09T10:00:36;99933.81;;;16.44;100.00
13800;BME280;6971;50.028;9.258;2023-10-09T10:05:45;99943.19;;;16.37;100.00
13800;BME280;6971;50.028;9.258;2023-10-09T10:10:49;99937.97;;;16.48;100.00
13800;BME280;6971;50.028;9.258;2023-10-09T10:15:57;99940.25;;;16.28;100.00
13800;BME280;6971;50.028;9.258;2023-10-09T10:21:11;99944.91;;;16.38;100.00
13800;BME280;6971;50.028;9.258;2023-10-09T10:26:17;99944.16;;;16.36;100.00
13800;BME280;6971;50.028;9.258;2023-10-09T10:32:02;99944.56;;;16.42;100.00
13800;BME280;6971;50.028;9.258;2023-10-09T10:37:07;99973.31;;;16.24;100.00
13800;BME280;6971;50.028;9.258;2023-10-09T10:42:08;99984.38;;;16.05;100.00
13800;BME280;6971;50.028;9.258;2023-10-09T10:47:12;99981.31;;;16.24;100.00
13800;BME280;6971;50.028;9.258;2023-10-09T10:52:25;99956.94;;;16.17;100.00
13800;BME280;6971;50.028;9.258;2023-10-09T10:57:36;99925.94;;;16.55;100.00
13800;BME280;6971;50.028;9.258;2023-10-09T11:03:06;99911.34;;;16.61;100.00
13800;BME280;6971;50.028;9.258;2023-10-09T11:08:13;99916.63;;;17.12;100.00
13800;BME280;6971;50.028;9.258;2023-10-09T11:13:25;99902.50;;;17.22;100.00
13800;BME280;6971;50.028;9.258;2023-10-09T11:18:42;99880.00;;;17.27;100.00
13800;BME280;6971;50.028;9.258;2023-10-09T11:23:48;99872.09;;;18.08;100.00
13800;BME280;6971;50.028;9.258;2023-10-09T11:29:11;99860.16;;;18.58;100.00
13800;BME280;6971;50.028;9.258;2023-10-09T11:34:35;99865.97;;;18.75;100.00
13800;BME280;6971;50.028;9.258;2023-10-09T11:39:37;99850.75;;;18.31;100.00
13800;BME280;6971;50.028;9.258;2023-10-09T11:44:50;99847.38;;;18.29;100.00
13800;BME280;6971;50.028;9.258;2023-10-09T11:49:56;99838.72;;;18.92;100.00
13800;BME280;6971;50.028;9.258;2023-10-09T11:55:04;99827.13;;;19.15;100.00
13800;BME280;6971;50.028;9.258;2023-10-09T12:00:07;99838.06;;;19.00;100.00
13800;BME280;6971;50.028;9.258;2023-10-09T12:05:11;99815.91;;;18.88;100.00
13800;BME280;6971;50.028;9.258;2023-10-09T12:10:17;99818.16;;;18.72;100.00
13800;BME280;6971;50.028;9.258;2023-10-09T12:15:25;99823.34;;;18.29;100.00
13800;BME280;6971;50.028;9.258;2023-10-09T12:20:25;99816.56;;;18.25;100.00
13800;BME280;6971;50.028;9.258;2023-10-09T12:25:33;99822.56;;;18.61;100.00
13800;BME280;6971;50.028;9.258;2023-10-09T12:30:35;99813.91;;;18.69;100.00
13800;BME280;6971;50.028;9.258;2023-10-09T12:35:40;99816.69;;;18.68;100.00
13800;BME280;6971;50.028;9.258;2023-10-09T12:40:41;99810.56;;;18.88;100.00
13800;BME280;6971;50.028;9.258;2023-10-09T12:45:50;99801.00;;;18.86;100.00
13800;BME280;6971;50.028;9.258;2023-10-09T12:50:51;99803.34;;;18.79;100.00
13800;BME280;6971;50.028;9.258;2023-10-09T12:55:54;99818.16;;;18.72;100.00
13800;BME280;6971;50.028;9.258;2023-10-09T13:00:56;99811.88;;;18.61;100.00
13800;BME280;6971;50.028;9.258;2023-10-09T13:05:57;99806.53;;;18.61;100.00
13800;BME280;6971;50.028;9.258;2023-10-09T13:11:02;99812.41;;;18.44;100.00
13800;BME280;6971;50.028;9.258;2023-10-09T13:16:12;99812.75;;;18.62;100.00
13800;BME280;6971;50.028;9.258;2023-10-09T13:21:13;99802.50;;;18.23;100.00
13800;BME280;6971;50.028;9.258;2023-10-09T13:26:14;99803.72;;;18.19;100.00
13800;BME280;6971;50.028;9.258;2023-10-09T13:31:18;99809.78;;;18.21;100.00
13800;BME280;6971;50.028;9.258;2023-10-09T13:36:22;99802.72;;;18.31;100.00
13800;BME280;6971;50.028;9.258;2023-10-09T13:41:31;99808.34;;;18.28;100.00
13800;BME280;6971;50.028;9.258;2023-10-09T13:46:32;99800.53;;;18.48;100.00
13800;BME280;6971;50.028;9.258;2023-10-09T13:51:41;99805.56;;;18.18;100.00
13800;BME280;6971;50.028;9.258;2023-10-09T13:56:44;99805.19;;;18.11;100.00
13800;BME280;6971;50.028;9.258;2023-10-09T14:01:45;99799.59;;;18.14;100.00
13800;BME280;6971;50.028;9.258;2023-10-09T14:06:47;99798.38;;;18.07;100.00
13800;BME280;6971;50.028;9.258;2023-10-09T14:11:48;99793.78;;;17.86;100.00
13800;BME280;6971;50.028;9.258;2023-10-09T14:16:52;99808.56;;;17.91;100.00
13800;BME280;6971;50.028;9.258;2023-10-09T14:21:57;99803.94;;;17.81;100.00
13800;BME280;6971;50.028;9.258;2023-10-09T14:26:57;99796.19;;;17.67;100.00
13800;BME280;6971;50.028;9.258;2023-10-09T14:31:58;99796.91;;;17.69;100.00
13800;BME280;6971;50.028;9.258;2023-10-09T14:37:02;99801.41;;;17.68;100.00
13800;BME280;6971;50.028;9.258;2023-10-09T14:42:03;99806.00;;;17.55;100.00
13800;BME280;6971;50.028;9.258;2023-10-09T14:47:09;99801.53;;;17.67;100.00
13800;BME280;6971;50.028;9.258;2023-10-09T14:52:10;99811.44;;;17.53;100.00
13800;BME280;6971;50.028;9.258;2023-10-09T14:57:11;99807.31;;;17.60;100.00
13800;BME280;6971;50.028;9.258;2023-10-09T15:02:12;99802.44;;;17.43;100.00
13800;BME280;6971;50.028;9.258;2023-10-09T15:07:12;99805.34;;;17.28;100.00
13800;BME280;6971;50.028;9.258;2023-10-09T15:12:15;99803.75;;;17.26;100.00
13800;BME280;6971;50.028;9.258;2023-10-09T15:17:15;99788.84;;;17.23;100.00
13800;BME280;6971;50.028;9.258;2023-10-09T15:22:16;99790.28;;;17.16;100.00
13800;BME280;6971;50.028;9.258;2023-10-09T15:27:16;99786.16;;;16.87;100.00
13800;BME280;6971;50.028;9.258;2023-10-09T15:32:17;99807.72;;;16.60;100.00
13800;BME280;6971;50.028;9.258;2023-10-09T15:37:22;99813.75;;;16.62;100.00
13800;BME280;6971;50.028;9.258;2023-10-09T15:42:23;99793.63;;;16.70;100.00
13800;BME280;6971;50.028;9.258;2023-10-09T15:47:23;99787.63;;;16.42;100.00
13800;BME280;6971;50.028;9.258;2023-10-09T15:52:23;99789.94;;;16.23;100.00
13800;BME280;6971;50.028;9.258;2023-10-09T15:57:27;99782.38;;;16.29;100.00
13800;BME280;6971;50.028;9.258;2023-10-09T16:02:27;99786.72;;;16.30;100.00
13800;BME280;6971;50.028;9.258;2023-10-09T16:07:27;99788.94;;;15.99;100.00
13800;BME280;6971;50.028;9.258;2023-10-09T16:12:28;99793.06;;;16.03;100.00
13800;BME280;6971;50.028;9.258;2023-10-09T16:17:34;99798.09;;;15.82;100.00
13800;BME280;6971;50.028;9.258;2023-10-09T16:22:34;99783.41;;;15.76;100.00
13800;BME280;6971;50.028;9.258;2023-10-09T16:27:35;99795.22;;;15.46;100.00
13800;BME280;6971;50.028;9.258;2023-10-09T16:32:36;99808.06;;;15.39;100.00
13800;BME280;6971;50.028;9.258;2023-10-09T16:37:38;99800.19;;;15.38;100.00
13800;BME280;6971;50.028;9.258;2023-10-09T16:42:42;99806.41;;;15.11;100.00
13800;BME280;6971;50.028;9.258;2023-10-09T16:47:46;99812.34;;;15.01;100.00
13800;BME280;6971;50.028;9.258;2023-10-09T16:52:47;99819.25;;;14.77;100.00
13800;BME280;6971;50.028;9.258;2023-10-09T16:57:47;99820.59;;;14.69;100.00
13800;BME280;6971;50.028;9.258;2023-10-09T17:02:48;99811.44;;;14.60;100.00
13800;BME280;6971;50.028;9.258;2023-10-09T17:07:49;99813.06;;;14.48;100.00
13800;BME280;6971;50.028;9.258;2023-10-09T17:12:49;99822.84;;;14.33;100.00
13800;BME280;6971;50.028;9.258;2023-10-09T17:17:52;99828.84;;;14.22;100.00
13800;BME280;6971;50.028;9.258;2023-10-09T17:22:56;99828.56;;;14.13;100.00
13800;BME280;6971;50.028;9.258;2023-10-09T17:28:05;99830.94;;;14.17;100.00
13800;BME280;6971;50.028;9.258;2023-10-09T17:33:06;99830.09;;;14.02;100.00
13800;BME280;6971;50.028;9.258;2023-10-09T17:38:06;99830.84;;;13.90;100.00
13800;BME280;6971;50.028;9.258;2023-10-09T17:43:08;99835.75;;;13.67;100.00
13800;BME280;6971;50.028;9.258;2023-10-09T17:48:09;99829.03;;;13.61;100.00
13800;BME280;6971;50.028;9.258;2023-10-09T17:53:10;99837.34;;;13.55;100.00
13800;BME280;6971;50.028;9.258;2023-10-09T17:58:10;99833.19;;;13.65;100.00
13800;BME280;6971;50.028;9.258;2023-10-09T18:03:12;99831.28;;;13.53;100.00
13800;BME280;6971;50.028;9.258;2023-10-09T18:08:15;99828.59;;;13.38;100.00
13800;BME280;6971;50.028;9.258;2023-10-09T18:13:15;99836.81;;;13.34;100.00
13800;BME280;6971;50.028;9.258;2023-10-09T18:18:19;99838.75;;;13.15;100.00
13800;BME280;6971;50.028;9.258;2023-10-09T18:23:20;99834.69;;;13.24;100.00
13800;BME280;6971;50.028;9.258;2023-10-09T18:28:20;99840.34;;;12.87;100.00
13800;BME280;6971;50.028;9.258;2023-10-09T18:33:21;99850.13;;;12.85;100.00
13800;BME280;6971;50.028;9.258;2023-10-09T18:38:23;99841.25;;;12.86;100.00
13800;BME280;6971;50.028;9.258;2023-10-09T18:43:23;99856.63;;;12.63;100.00
13800;BME280;6971;50.028;9.258;2023-10-09T18:48:24;99855.38;;;12.38;100.00
13800;BME280;6971;50.028;9.258;2023-10-09T18:53:33;99856.91;;;12.43;100.00
13800;BME280;6971;50.028;9.258;2023-10-09T18:58:34;99860.13;;;12.32;100.00
13800;BME280;6971;50.028;9.258;2023-10-09T19:03:34;99851.94;;;12.20;100.00
13800;BME280;6971;50.028;9.258;2023-10-09T19:08:35;99864.28;;;12.02;100.00
13800;BME280;6971;50.028;9.258;2023-10-09T19:13:37;99859.88;;;12.02;100.00
13800;BME280;6971;50.028;9.258;2023-10-09T19:18:38;99870.94;;;11.93;100.00
13800;BME280;6971;50.028;9.258;2023-10-09T19:23:41;99864.44;;;11.83;100.00
13800;BME280;6971;50.028;9.258;2023-10-09T19:28:42;99868.31;;;11.75;100.00
13800;BME280;6971;50.028;9.258;2023-10-09T19:33:43;99877.25;;;11.55;100.00
13800;BME280;6971;50.028;9.258;2023-10-09T19:38:45;99879.28;;;11.50;100.00
13800;BME280;6971;50.028;9.258;2023-10-09T19:43:51;99876.94;;;11.44;100.00
13800;BME280;6971;50.028;9.258;2023-10-09T19:48:52;99878.75;;;11.43;100.00
13800;BME280;6971;50.028;9.258;2023-10-09T19:53:52;99883.97;;;11.45;100.00
13800;BME280;6971;50.028;9.258;2023-10-09T19:58:53;99892.94;;;11.23;100.00
13800;BME280;6971;50.028;9.258;2023-10-09T20:03:54;99912.25;;;11.23;100.00
13800;BME280;6971;50.028;9.258;2023-10-09T20:08:54;99910.94;;;11.15;100.00
13800;BME280;6971;50.028;9.258;2023-10-09T20:13:54;99905.03;;;11.09;100.00
13800;BME280;6971;50.028;9.258;2023-10-09T20:18:55;99911.97;;;10.93;100.00
13800;BME280;6971;50.028;9.258;2023-10-09T20:23:55;99919.31;;;10.86;100.00
13800;BME280;6971;50.028;9.258;2023-10-09T20:28:55;99929.63;;;10.91;100.00
13800;BME280;6971;50.028;9.258;2023-10-09T20:33:56;99919.25;;;10.88;100.00
13800;BME280;6971;50.028;9.258;2023-10-09T20:38:57;99916.88;;;10.81;100.00
13800;BME280;6971;50.028;9.258;2023-10-09T20:43:57;99917.81;;;10.80;100.00
13800;BME280;6971;50.028;9.258;2023-10-09T20:48:58;99924.28;;;10.73;100.00
13800;BME280;6971;50.028;9.258;2023-10-09T20:53:59;99927.78;;;10.54;100.00
13800;BME280;6971;50.028;9.258;2023-10-09T20:59:00;99939.13;;;10.56;100.00
13800;BME280;6971;50.028;9.258;2023-10-09T21:04:01;99941.66;;;10.58;100.00
13800;BME280;6971;50.028;9.258;2023-10-09T21:09:01;99940.03;;;10.55;100.00
13800;BME280;6971;50.028;9.258;2023-10-09T21:14:02;99935.75;;;10.53;100.00
13800;BME280;6971;50.028;9.258;2023-10-09T21:19:04;99939.91;;;10.38;100.00
13800;BME280;6971;50.028;9.258;2023-10-09T21:24:05;99940.06;;;10.35;100.00
13800;BME280;6971;50.028;9.258;2023-10-09T21:29:08;99939.25;;;10.32;100.00
13800;BME280;6971;50.028;9.258;2023-10-09T21:34:12;99938.56;;;10.29;100.00
13800;BME280;6971;50.028;9.258;2023-10-09T21:39:12;99934.53;;;10.20;100.00
13800;BME280;6971;50.028;9.258;2023-10-09T21:44:17;99933.69;;;10.19;100.00
13800;BME280;6971;50.028;9.258;2023-10-09T21:49:18;99937.53;;;10.12;100.00
13800;BME280;6971;50.028;9.258;2023-10-09T21:54:18;99947.53;;;10.04;100.00
13800;BME280;6971;50.028;9.258;2023-10-09T21:59:18;99950.75;;;10.11;100.00
13800;BME280;6971;50.028;9.258;2023-10-09T22:04:19;99950.09;;;10.05;100.00
13800;BME280;6971;50.028;9.258;2023-10-09T22:09:19;99953.00;;;9.99;100.00
13800;BME280;6971;50.028;9.258;2023-10-09T22:14:19;99944.19;;;10.00;100.00
13800;BME280;6971;50.028;9.258;2023-10-09T22:19:20;99936.22;;;10.02;100.00
13800;BME280;6971;50.028;9.258;2023-10-09T22:24:25;99938.16;;;9.98;100.00
13800;BME280;6971;50.028;9.258;2023-10-09T22:29:26;99939.03;;;9.97;100.00
13800;BME280;6971;50.028;9.258;2023-10-09T22:34:27;99935.50;;;9.98;100.00
13800;BME280;6971;50.028;9.258;2023-10-09T22:39:30;99943.53;;;9.95;100.00
13800;BME280;6971;50.028;9.258;2023-10-09T22:44:33;99945.81;;;10.03;100.00
13800;BME280;6971;50.028;9.258;2023-10-09T22:49:34;99944.38;;;9.96;100.00
13800;BME280;6971;50.028;9.258;2023-10-09T22:54:35;99947.88;;;9.96;100.00
13800;BME280;6971;50.028;9.258;2023-10-09T22:59:35;99944.31;;;9.76;100.00
13800;BME280;6971;50.028;9.258;2023-10-09T23:04:44;99938.13;;;9.77;100.00
13800;BME280;6971;50.028;9.258;2023-10-09T23:09:49;99925.75;;;9.79;100.00
13800;BME280;6971;50.028;9.258;2023-10-09T23:14:51;99927.59;;;9.77;100.00
13800;BME280;6971;50.028;9.258;2023-10-09T23:19:52;99929.72;;;9.69;100.00
13800;BME280;6971;50.028;9.258;2023-10-09T23:24:56;99938.13;;;9.77;100.00
13800;BME280;6971;50.028;9.258;2023-10-09T23:30:11;99941.69;;;9.76;100.00
13800;BME280;6971;50.028;9.258;2023-10-09T23:35:25;99943.19;;;9.82;100.00
13800;BME280;6971;50.028;9.258;2023-10-09T23:40:46;99945.63;;;9.66;100.00
13800;BME280;6971;50.028;9.258;2023-10-09T23:45:46;99949.72;;;9.73;100.00
13800;BME280;6971;50.028;9.258;2023-10-09T23:50:47;99945.88;;;9.60;100.00
13800;BME280;6971;50.028;9.258;2023-10-09T23:55:48;99945.81;;;9.61;100.00
